Time;durP1;ratioP1;P1;durP2;ratioP2;P2;SDS_P1;SDS_P2;PMS_P1;PMS_P2;Temp;Humidity;BMP_temperature;BMP_pressure;BME280_temperature;BME280_humidity;BME280_pressure;Samples;Min_cycle;Max_cycle;Signal;HPM_P1;HPM_P2
2021/03/27 00:02:02;;;;;;;1999.90;999.90;;;6.30;99.90;;;;;;4999521;28;20398;-69
2021/03/27 00:04:46;;;;;;;1999.90;999.90;;;6.30;99.90;;;;;;5082439;27;20058;-68
2021/03/27 00:07:23;;;;;;;1999.90;999.90;;;6.30;99.90;;;;;;4985101;28;20056;-68
2021/03/27 00:10:07;;;;;;;1999.90;999.90;;;6.30;99.90;;;;;;4988678;28;20097;-69
2021/03/27 00:12:36;;;;;;;1999.90;999.90;;;6.30;99.90;;;;;;4980838;28;20064;-68
2021/03/27 00:15:24;;;;;;;1999.90;999.90;;;6.20;99.90;;;;;;4996337;28;20042;-69
2021/03/27 00:18:11;;;;;;;1999.90;999.90;;;6.20;99.90;;;;;;4977394;28;20053;-69
2021/03/27 00:21:34;;;;;;;1999.90;999.90;;;6.20;99.90;;;;;;4977953;28;20056;-69
2021/03/27 00:24:07;;;;;;;1999.90;999.90;;;6.20;99.90;;;;;;4979930;28;20082;-69
2021/03/27 00:26:39;;;;;;;1999.90;999.90;;;6.10;99.90;;;;;;4978979;28;20074;-69
2021/03/27 00:29:20;;;;;;;1999.90;999.90;;;6.10;99.90;;;;;;4980207;28;20042;-69
2021/03/27 00:31:57;;;;;;;1999.90;999.90;;;6.10;99.90;;;;;;4982709;28;20133;-69
2021/03/27 00:34:29;;;;;;;1999.90;999.90;;;6.10;99.90;;;;;;4979167;28;20050;-69
2021/03/27 00:36:59;;;;;;;1999.90;999.90;;;6.10;99.90;;;;;;4985117;28;20134;-69
2021/03/27 00:39:29;;;;;;;1999.90;999.90;;;6.00;99.90;;;;;;4988303;28;20090;-69
2021/03/27 00:42:04;;;;;;;1999.90;999.90;;;6.00;99.90;;;;;;4990401;28;20412;-69
2021/03/27 00:45:00;;;;;;;1999.90;999.90;;;6.00;99.90;;;;;;4984670;28;20050;-69
2021/03/27 00:47:56;;;;;;;1999.90;999.90;;;6.00;99.90;;;;;;4982268;28;20096;-69
2021/03/27 00:50:39;;;;;;;1999.90;999.90;;;6.10;99.90;;;;;;4974171;28;20054;-69
2021/03/27 00:53:31;;;;;;;1999.90;999.90;;;6.10;99.90;;;;;;4979142;28;20134;-70
2021/03/27 00:56:04;;;;;;;1999.90;999.90;;;6.10;99.90;;;;;;5020539;28;20045;-69
2021/03/27 00:58:36;;;;;;;1999.90;999.90;;;6.10;99.90;;;;;;4981817;28;20319;-68
2021/03/27 01:01:08;;;;;;;1999.90;999.90;;;6.10;99.90;;;;;;4977488;28;20057;-69
2021/03/27 01:03:42;;;;;;;1999.90;999.90;;;6.00;99.90;;;;;;4984891;28;20047;-69
2021/03/27 01:06:16;;;;;;;1999.90;999.90;;;6.00;99.90;;;;;;5086853;27;20046;-69
2021/03/27 01:08:50;;;;;;;1999.90;999.90;;;6.00;99.90;;;;;;4996105;28;20081;-69
2021/03/27 01:11:26;;;;;;;1999.90;999.90;;;6.10;99.90;;;;;;5001705;28;20095;-68
2021/03/27 01:13:56;;;;;;;1999.90;999.90;;;6.10;99.90;;;;;;5003487;28;20074;-69
2021/03/27 01:16:30;;;;;;;1999.90;999.90;;;6.10;99.90;;;;;;4984997;28;20496;-69
2021/03/27 01:19:07;;;;;;;1999.90;999.90;;;6.20;99.90;;;;;;5004339;28;20042;-69
2021/03/27 01:21:37;;;;;;;1999.90;999.90;;;6.20;99.90;;;;;;4997586;28;20137;-69
2021/03/27 01:24:08;;;;;;;1999.90;999.90;;;6.20;99.90;;;;;;5002082;28;20046;-68
2021/03/27 01:26:58;;;;;;;1999.90;999.90;;;6.20;99.90;;;;;;4995929;28;20562;-69
2021/03/27 01:29:37;;;;;;;1999.90;999.90;;;6.20;99.90;;;;;;5002214;28;20148;-68
2021/03/27 01:32:15;;;;;;;;;;;6.10;99.90;;;;;;4981279;28;20054;-67
2021/03/27 01:34:49;;;;;;;1999.90;999.90;;;5.50;99.90;;;;;;4997404;28;20384;-67
2021/03/27 01:37:25;;;;;;;1999.90;999.90;;;5.00;99.90;;;;;;4994710;28;20100;-68
2021/03/27 01:40:26;;;;;;;1999.90;999.90;;;4.60;99.90;;;;;;4998821;28;20133;-67
2021/03/27 01:43:11;;;;;;;1999.90;999.90;;;4.40;99.90;;;;;;5003736;28;20142;-68
2021/03/27 01:46:15;;;;;;;1999.90;999.90;;;4.40;99.90;;;;;;5002762;28;20070;-68
2021/03/27 01:49:18;;;;;;;1999.90;999.90;;;4.40;99.90;;;;;;4998107;28;20103;-68
2021/03/27 01:52:02;;;;;;;1999.90;999.90;;;4.40;99.90;;;;;;4994342;28;20150;-68
2021/03/27 01:54:44;;;;;;;1999.90;999.90;;;4.40;99.90;;;;;;5003366;28;20531;-68
2021/03/27 01:57:30;;;;;;;1999.90;999.90;;;4.40;99.90;;;;;;4995187;28;20072;-68
2021/03/27 02:00:14;;;;;;;1999.90;999.90;;;4.50;99.90;;;;;;4991345;28;20470;-68
2021/03/27 02:02:50;;;;;;;1999.90;999.90;;;4.50;99.90;;;;;;4998866;28;20476;-68
2021/03/27 02:05:32;;;;;;;1999.90;999.90;;;4.50;99.90;;;;;;4986548;28;20049;-68
2021/03/27 02:08:17;;;;;;;1999.90;999.90;;;4.50;99.90;;;;;;5003820;28;20049;-68
2021/03/27 02:10:44;;;;;;;1999.90;999.90;;;4.50;99.90;;;;;;5003003;28;20046;-68
2021/03/27 02:13:47;;;;;;;1999.90;999.90;;;4.40;99.90;;;;;;5007443;28;20141;-68
2021/03/27 02:16:41;;;;;;;1999.90;999.90;;;4.40;99.90;;;;;;4995232;28;20046;-69
2021/03/27 02:19:34;;;;;;;1999.90;999.90;;;4.40;99.90;;;;;;5000561;28;20096;-68
2021/03/27 02:22:38;;;;;;;1999.90;999.90;;;4.40;99.90;;;;;;4985916;28;20050;-69
2021/03/27 02:25:50;;;;;;;1999.90;999.90;;;4.40;99.90;;;;;;4981687;28;20056;-68
2021/03/27 02:28:55;;;;;;;1999.90;999.90;;;4.40;99.90;;;;;;5001224;28;20471;-69
2021/03/27 02:31:29;;;;;;;1999.90;999.90;;;4.40;99.90;;;;;;5001634;28;20368;-69
2021/03/27 02:34:02;;;;;;;1999.90;999.90;;;4.40;99.90;;;;;;4983686;28;20108;-69
2021/03/27 02:36:53;;;;;;;1999.90;999.90;;;4.40;99.90;;;;;;5007393;28;20056;-68
2021/03/27 02:39:25;;;;;;;1999.90;999.90;;;4.50;99.90;;;;;;5003955;28;20081;-68
2021/03/27 02:42:07;;;;;;;1999.90;999.90;;;4.50;99.90;;;;;;5012848;28;20073;-69
2021/03/27 02:44:49;;;;;;;1999.90;999.90;;;4.60;99.90;;;;;;4987669;28;20357;-68
2021/03/27 02:47:37;;;;;;;1999.90;999.90;;;4.70;99.90;;;;;;5009642;28;20081;-69
2021/03/27 02:50:42;;;;;;;1999.90;999.90;;;4.70;99.90;;;;;;4996751;28;20077;-69
2021/03/27 02:53:16;;;;;;;1999.90;999.90;;;4.80;99.90;;;;;;4999253;28;20053;-68
2021/03/27 02:55:48;;;;;;;1999.90;999.90;;;4.80;99.90;;;;;;5003784;28;20137;-68
2021/03/27 02:58:28;;;;;;;1999.90;999.90;;;4.90;99.90;;;;;;4989969;28;20042;-68
2021/03/27 03:01:17;;;;;;;1999.90;999.90;;;4.90;99.90;;;;;;5004616;28;20060;-68
2021/03/27 03:03:56;;;;;;;1999.90;999.90;;;4.90;99.90;;;;;;4998765;28;20042;-68
2021/03/27 03:06:50;;;;;;;1999.90;999.90;;;4.90;99.90;;;;;;4987043;28;20053;-69
2021/03/27 03:09:40;;;;;;;1999.90;999.90;;;5.00;99.90;;;;;;5000214;28;20807;-68
2021/03/27 03:12:22;;;;;;;1999.90;999.90;;;5.00;99.90;;;;;;4980135;28;20053;-69
2021/03/27 03:14:55;;;;;;;1999.90;999.90;;;5.00;99.90;;;;;;5002141;28;20152;-68
2021/03/27 03:17:37;;;;;;;1999.90;999.90;;;5.10;99.90;;;;;;5004929;28;20485;-68
2021/03/27 03:20:15;;;;;;;1999.90;999.90;;;5.10;99.90;;;;;;4999869;28;20129;-69
2021/03/27 03:23:10;;;;;;;1999.90;999.90;;;5.10;99.90;;;;;;4982159;28;20056;-68
2021/03/27 03:25:53;;;;;;;1999.90;999.90;;;5.20;99.90;;;;;;4997796;28;20046;-68
2021/03/27 03:28:27;;;;;;;1999.90;999.90;;;5.20;99.90;;;;;;5001688;28;20050;-68
2021/03/27 03:31:10;;;;;;;1999.90;999.90;;;5.20;99.90;;;;;;5002345;28;20375;-69
2021/03/27 03:34:10;;;;;;;1999.90;999.90;;;5.20;99.90;;;;;;5004112;28;20102;-69
2021/03/27 03:36:57;;;;;;;1999.90;999.90;;;5.20;99.90;;;;;;4996385;28;20450;-68
2021/03/27 03:39:42;;;;;;;1999.90;999.90;;;5.20;99.90;;;;;;4978380;28;20056;-69
2021/03/27 03:42:28;;;;;;;1999.90;999.90;;;5.20;99.90;;;;;;5000795;28;20042;-68
2021/03/27 03:45:17;;;;;;;1999.90;999.90;;;5.20;99.90;;;;;;4983851;28;20042;-68
2021/03/27 03:48:05;;;;;;;1999.90;999.90;;;5.20;99.90;;;;;;4997152;28;20129;-68
2021/03/27 03:50:57;;;;;;;1999.90;999.90;;;5.20;99.90;;;;;;4998690;28;20095;-69
2021/03/27 03:53:48;;;;;;;1999.90;999.90;;;5.20;99.90;;;;;;5003628;28;20064;-69
2021/03/27 03:56:34;;;;;;;1999.90;999.90;;;5.20;99.90;;;;;;5001454;28;20056;-69
2021/03/27 03:59:47;;;;;;;1999.90;999.90;;;5.20;99.90;;;;;;5006230;28;20129;-68
2021/03/27 04:02:20;;;;;;;1999.90;999.90;;;5.20;99.90;;;;;;5016800;28;20101;-68
2021/03/27 04:04:53;;;;;;;1999.90;999.90;;;5.30;99.90;;;;;;5009383;28;20050;-69
2021/03/27 04:07:25;;;;;;;1999.90;999.90;;;5.30;99.90;;;;;;4996522;28;20557;-68
2021/03/27 04:09:58;;;;;;;1999.90;999.90;;;5.40;99.90;;;;;;5003666;28;20634;-68
2021/03/27 04:12:24;;;;;;;1999.90;999.90;;;5.40;99.90;;;;;;5000384;28;20046;-68
2021/03/27 04:15:12;;;;;;;1999.90;999.90;;;5.50;99.90;;;;;;5001201;28;20056;-68
2021/03/27 04:18:16;;;;;;;1999.90;999.90;;;5.50;99.90;;;;;;5003622;28;20081;-68
2021/03/27 04:21:13;;;;;;;1999.90;999.90;;;5.60;99.90;;;;;;5001676;28;20533;-68
2021/03/27 04:24:01;;;;;;;1999.90;999.90;;;5.50;99.90;;;;;;4999790;28;20072;-68
2021/03/27 04:26:41;;;;;;;1999.90;999.90;;;5.50;99.90;;;;;;5005205;28;20146;-68
2021/03/27 04:29:29;;;;;;;1999.90;999.90;;;5.50;99.90;;;;;;4982156;28;20043;-68
2021/03/27 04:32:14;;;;;;;1999.90;999.90;;;5.50;99.90;;;;;;4994573;28;20041;-68
2021/03/27 04:34:48;;;;;;;1999.90;999.90;;;5.50;99.90;;;;;;5002656;28;20046;-68
2021/03/27 04:37:38;;;;;;;1999.90;999.90;;;5.50;99.90;;;;;;5003732;28;20420;-68
2021/03/27 04:40:11;;;;;;;1999.90;999.90;;;5.50;99.90;;;;;;4999920;28;20502;-68
2021/03/27 04:42:51;;;;;;;1999.90;999.90;;;5.50;99.90;;;;;;4994642;28;20053;-68
2021/03/27 04:45:17;;;;;;;1999.90;999.90;;;5.50;99.90;;;;;;4983038;28;20092;-69
2021/03/27 04:48:14;;;;;;;1999.90;999.90;;;5.50;99.90;;;;;;4999054;28;20046;-68
2021/03/27 04:51:12;;;;;;;1999.90;999.90;;;5.60;99.90;;;;;;4995402;28;20042;-69
2021/03/27 04:54:03;;;;;;;1999.90;999.90;;;5.60;99.90;;;;;;4999950;28;20513;-68
2021/03/27 04:56:44;;;;;;;1999.90;999.90;;;5.60;99.90;;;;;;4982727;28;20052;-69
2021/03/27 04:59:52;;;;;;;1999.90;999.90;;;5.60;99.90;;;;;;5087079;27;20133;-68
2021/03/27 05:02:35;;;;;;;1999.90;999.90;;;5.60;99.90;;;;;;4996948;28;20045;-68
2021/03/27 05:05:04;;;;;;;1999.90;999.90;;;5.60;99.90;;;;;;4998915;28;20634;-68
2021/03/27 05:07:50;;;;;;;1999.90;999.90;;;5.60;99.90;;;;;;4995549;28;20099;-68
2021/03/27 05:10:33;;;;;;;1999.90;999.90;;;5.60;99.90;;;;;;5001481;28;20049;-68
2021/03/27 05:13:26;;;;;;;1999.90;999.90;;;5.60;99.90;;;;;;5000440;28;20052;-68
2021/03/27 05:16:04;;;;;;;1999.90;999.90;;;5.50;99.90;;;;;;5000413;28;20189;-68
2021/03/27 05:18:50;;;;;;;1999.90;999.90;;;5.50;99.90;;;;;;5003145;28;20120;-69
2021/03/27 05:21:35;;;;;;;1999.90;999.90;;;5.50;99.90;;;;;;5002433;28;20042;-68
2021/03/27 05:24:08;;;;;;;1999.90;999.90;;;5.50;99.90;;;;;;4993667;28;20370;-68
2021/03/27 05:26:44;;;;;;;1999.90;999.90;;;5.50;99.90;;;;;;5001404;28;20038;-68
2021/03/27 05:29:22;;;;;;;1999.90;999.90;;;5.50;99.90;;;;;;4993600;28;20046;-68
2021/03/27 05:32:01;;;;;;;1999.90;999.90;;;5.50;99.90;;;;;;4999333;28;20408;-69
2021/03/27 05:34:34;;;;;;;1999.90;999.90;;;5.50;99.90;;;;;;5004363;28;20311;-68
2021/03/27 05:37:23;;;;;;;1999.90;999.90;;;5.50;99.90;;;;;;5001014;28;20056;-68
2021/03/27 05:40:13;;;;;;;1999.90;999.90;;;5.60;99.90;;;;;;5003578;28;20042;-68
2021/03/27 05:43:25;;;;;;;1999.90;999.90;;;5.60;99.90;;;;;;5035488;28;20058;-68
2021/03/27 05:46:32;;;;;;;1999.90;999.90;;;5.70;99.90;;;;;;4983147;28;20045;-69
2021/03/27 05:49:16;;;;;;;1999.90;999.90;;;5.70;99.90;;;;;;5015782;28;20462;-69
2021/03/27 06:07:24;;;;;;;1999.90;999.90;;;5.50;99.90;;;;;;5000165;28;20033;-69
2021/03/27 06:10:16;;;;;;;1999.90;999.90;;;5.40;99.90;;;;;;5002785;28;20045;-68
2021/03/27 06:12:54;;;;;;;1999.90;999.90;;;5.40;99.90;;;;;;5003079;28;20505;-68
2021/03/27 06:15:23;;;;;;;1999.90;999.90;;;5.40;99.90;;;;;;5001829;28;20168;-69
2021/03/27 06:18:27;;;;;;;1999.90;999.90;;;5.30;99.90;;;;;;5004883;28;20488;-69
2021/03/27 06:21:31;;;;;;;1999.90;999.90;;;5.30;99.90;;;;;;4999534;28;20446;-68
2021/03/27 06:24:33;;;;;;;1999.90;999.90;;;5.30;99.90;;;;;;4998762;28;20091;-69
2021/03/27 06:27:25;;;;;;;1999.90;999.90;;;5.20;99.90;;;;;;5016421;28;20451;-68
2021/03/27 06:30:06;;;;;;;1999.90;999.90;;;5.20;99.90;;;;;;4979696;28;20057;-69
2021/03/27 06:32:35;;;;;;;1999.90;999.90;;;5.20;99.90;;;;;;4999972;28;20126;-69
2021/03/27 06:35:26;;;;;;;1999.90;999.90;;;5.20;99.90;;;;;;5005384;28;20131;-68
2021/03/27 06:38:13;;;;;;;1999.90;999.90;;;5.20;99.90;;;;;;5001788;28;20042;-69
2021/03/27 06:41:00;;;;;;;1999.90;999.90;;;5.30;99.90;;;;;;4986265;28;20103;-69
2021/03/27 06:43:48;;;;;;;1999.90;999.90;;;5.30;99.90;;;;;;4988827;28;20289;-69
2021/03/27 06:46:32;;;;;;;1999.90;999.90;;;5.30;99.90;;;;;;5001523;28;20507;-68
2021/03/27 06:49:36;;;;;;;1999.90;999.90;;;5.30;99.90;;;;;;4989769;28;20128;-69
2021/03/27 06:52:47;;;;;;;1999.90;999.90;;;5.50;99.90;;;;;;4993030;28;20089;-68
2021/03/27 06:55:40;;;;;;;1999.90;999.90;;;5.50;99.90;;;;;;5005060;28;20401;-68
2021/03/27 06:58:51;;;;;;;1999.90;999.90;;;5.60;99.90;;;;;;5000749;28;20054;-68
2021/03/27 07:01:38;;;;;;;1999.90;999.90;;;5.70;99.90;;;;;;4995956;28;20053;-68
2021/03/27 07:04:36;;;;;;;1999.90;999.90;;;5.80;99.90;;;;;;5000582;28;20034;-69
2021/03/27 07:07:08;;;;;;;1999.90;999.90;;;5.80;99.90;;;;;;5005774;28;20094;-69
2021/03/27 07:10:05;;;;;;;1999.90;999.90;;;5.90;99.90;;;;;;5080536;28;20132;-69
2021/03/27 07:13:05;;;;;;;1999.90;999.90;;;5.90;99.90;;;;;;4998386;28;20149;-69
2021/03/27 07:16:02;;;;;;;1999.90;999.90;;;6.00;99.90;;;;;;5003139;28;20050;-69
2021/03/27 07:18:39;;;;;;;1999.90;999.90;;;6.10;99.90;;;;;;4984801;28;20046;-69
2021/03/27 07:21:34;;;;;;;1999.90;999.90;;;6.10;99.90;;;;;;4999610;28;20042;-69
2021/03/27 07:24:04;;;;;;;1999.90;999.90;;;6.10;99.90;;;;;;5004213;28;20065;-69
2021/03/27 07:26:49;;;;;;;;;;;6.10;99.90;;;;;;5008135;28;20484;-69
2021/03/27 07:29:46;;;;;;;1999.90;999.90;;;6.20;99.90;;;;;;5007432;28;19926;-68
2021/03/27 07:32:24;;;;;;;1999.90;999.90;;;6.30;99.90;;;;;;4992259;28;20433;-69
2021/03/27 07:35:10;;;;;;;1999.90;999.90;;;6.40;99.90;;;;;;5007817;28;20124;-69
2021/03/27 07:37:45;;;;;;;1999.90;999.90;;;6.50;99.90;;;;;;4995010;28;20042;-68
2021/03/27 07:40:14;;;;;;;1999.90;999.90;;;6.60;99.90;;;;;;5006459;28;20044;-69
2021/03/27 07:42:54;;;;;;;;;;;6.80;99.90;;;;;;5000451;28;20042;-69
2021/03/27 07:45:46;;;;;;;1999.90;999.90;;;6.90;99.90;;;;;;4993322;28;19972;-69
2021/03/27 07:48:37;;;;;;;1999.90;999.90;;;7.10;99.90;;;;;;4999297;28;20081;-69
2021/03/27 07:51:30;;;;;;;1999.90;999.90;;;7.10;99.90;;;;;;5085452;28;20042;-69
2021/03/27 07:54:24;;;;;;;1999.90;999.90;;;7.20;99.90;;;;;;5004778;28;20146;-69
2021/03/27 07:57:17;;;;;;;1999.90;999.90;;;7.20;99.90;;;;;;5010710;28;20525;-69
2021/03/27 07:59:54;;;;;;;1999.90;999.90;;;7.10;99.90;;;;;;4984978;28;20045;-69
2021/03/27 08:02:59;;;;;;;1999.90;999.90;;;7.10;99.90;;;;;;4998863;28;20056;-70
2021/03/27 08:12:56;;;;;;;1999.90;999.90;;;7.30;99.90;;;;;;5073669;28;20035;-70
2021/03/27 08:15:27;;;;;;;1999.90;999.90;;;7.40;99.90;;;;;;5075357;28;20458;-71
2021/03/27 08:18:30;;;;;;;1999.90;999.90;;;7.50;99.90;;;;;;5079889;28;20141;-71
2021/03/27 08:21:11;;;;;;;1999.90;999.90;;;7.60;99.90;;;;;;5080590;28;20409;-70
2021/03/27 08:23:58;;;;;;;1999.90;999.90;;;7.70;99.90;;;;;;5077439;28;20561;-71
2021/03/27 08:27:17;;;;;;;1999.90;999.90;;;7.60;99.90;;;;;;5078010;28;20076;-70
2021/03/27 08:30:21;;;;;;;1999.90;999.90;;;7.40;99.90;;;;;;5059488;28;20079;-70
2021/03/27 08:33:06;;;;;;;1999.90;999.90;;;7.30;99.90;;;;;;5080233;28;20040;-70
2021/03/27 08:36:10;;;;;;;1999.90;999.90;;;7.20;99.90;;;;;;5077288;28;20046;-71
2021/03/27 08:39:03;;;;;;;1999.90;999.90;;;7.10;99.90;;;;;;5078266;28;20426;-71
2021/03/27 08:41:32;;;;;;;1999.90;999.90;;;7.20;99.90;;;;;;5081967;28;20406;-71
2021/03/27 08:43:58;;;;;;;;;;;7.40;99.90;;;;;;5079993;28;20483;-70
2021/03/27 08:46:54;;;;;;;1999.90;999.90;;;7.60;99.90;;;;;;5083276;28;19921;-70
2021/03/27 08:49:36;;;;;;;1999.90;999.90;;;7.80;99.90;;;;;;5082693;28;20036;-71
2021/03/27 08:52:18;;;;;;;1999.90;999.90;;;8.00;99.90;;;;;;5086477;28;20046;-70
2021/03/27 08:55:06;;;;;;;1999.90;999.90;;;8.10;99.90;;;;;;5076146;28;20052;-70
2021/03/27 08:57:39;;;;;;;1999.90;999.90;;;8.10;99.90;;;;;;5077896;28;20054;-70
2021/03/27 09:00:43;;;;;;;1999.90;999.90;;;8.20;99.90;;;;;;5077143;28;20051;-70
2021/03/27 09:03:25;;;;;;;1999.90;999.90;;;8.40;99.90;;;;;;5066161;28;20412;-71
2021/03/27 09:06:22;;;;;;;1999.90;999.90;;;8.50;99.90;;;;;;5075147;28;20053;-71
2021/03/27 09:09:03;;;;;;;1999.90;999.90;;;8.60;99.90;;;;;;5077960;28;20068;-70
2021/03/27 09:11:52;;;;;;;1999.90;999.90;;;8.50;99.90;;;;;;5082126;28;20048;-71
2021/03/27 09:14:53;;;;;;;1999.90;999.90;;;8.30;99.90;;;;;;5077513;28;20062;-71
2021/03/27 09:17:41;;;;;;;1999.90;999.90;;;8.10;99.90;;;;;;5083687;28;20094;-70
2021/03/27 09:20:30;;;;;;;1999.90;999.90;;;8.10;99.90;;;;;;5065358;28;20167;-71
2021/03/27 09:27:13;;;;;;;1999.90;999.90;;;8.30;99.90;;;;;;5066541;28;20066;-70
2021/03/27 09:30:04;;;;;;;1999.90;999.90;;;8.40;99.10;;;;;;5055283;28;20072;-70
2021/03/27 09:32:47;;;;;;;1999.90;999.90;;;8.50;98.20;;;;;;5061983;28;20059;-70
2021/03/27 09:35:29;;;;;;;1999.90;999.90;;;8.50;97.90;;;;;;5057765;28;20362;-70
2021/03/27 09:38:26;;;;;;;1999.90;999.90;;;8.60;98.40;;;;;;5062932;28;20492;-70
2021/03/27 09:41:23;;;;;;;1999.90;999.90;;;8.70;96.30;;;;;;5068618;28;20106;-70
2021/03/27 09:44:13;;;;;;;1999.90;999.90;;;8.50;94.60;;;;;;5065540;28;20055;-70
2021/03/27 09:46:54;;;;;;;1999.90;999.90;;;8.50;96.20;;;;;;5063159;28;20049;-70
2021/03/27 09:49:22;;;;;;;1999.90;999.90;;;8.60;97.30;;;;;;5067762;28;20062;-70
2021/03/27 09:51:57;;;;;;;1999.90;999.90;;;8.80;96.70;;;;;;5065516;28;20045;-70
2021/03/27 09:54:48;;;;;;;1999.90;999.90;;;8.90;96.40;;;;;;5059147;28;20045;-70
2021/03/27 09:57:43;;;;;;;1999.90;999.90;;;9.00;97.40;;;;;;5053494;28;20134;-71
2021/03/27 10:00:44;;;;;;;1999.90;999.90;;;9.10;97.40;;;;;;5063997;28;20510;-71
2021/03/27 10:03:25;;;;;;;1999.90;999.90;;;9.00;96.80;;;;;;5060412;28;20048;-71
2021/03/27 10:06:17;;;;;;;1999.90;999.90;;;8.80;95.30;;;;;;5070751;28;20434;-70
2021/03/27 10:08:59;;;;;;;1999.90;999.90;;;8.70;96.50;;;;;;5067815;28;20057;-70
2021/03/27 10:11:33;;;;;;;1999.90;999.90;;;8.70;95.60;;;;;;5065496;28;20427;-71
2021/03/27 10:14:10;;;;;;;1999.90;999.90;;;8.80;96.70;;;;;;5067024;28;20044;-71
2021/03/27 10:16:53;;;;;;;1999.90;999.90;;;9.00;95.50;;;;;;5057994;28;20210;-71
2021/03/27 10:19:38;;;;;;;1999.90;999.90;;;9.00;95.30;;;;;;5058954;28;20045;-71
2021/03/27 10:22:55;;;;;;;1999.90;999.90;;;9.00;96.10;;;;;;5055996;28;20045;-71
2021/03/27 10:25:42;;;;;;;1999.90;999.90;;;9.10;95.70;;;;;;5059549;28;20057;-71
2021/03/27 10:28:28;;;;;;;1999.90;999.90;;;8.90;94.80;;;;;;5062945;28;20058;-71
2021/03/27 10:31:16;;;;;;;1999.90;999.90;;;8.80;96.30;;;;;;5058962;28;20132;-69
2021/03/27 10:34:30;;;;;;;1999.90;999.90;;;8.70;95.60;;;;;;5066244;28;20080;-69
2021/03/27 10:37:04;;;;;;;1999.90;999.90;;;8.60;96.90;;;;;;5064316;28;20044;-69
2021/03/27 10:39:56;;;;;;;1999.90;999.90;;;8.60;96.10;;;;;;5065239;28;20095;-69
2021/03/27 10:42:35;;;;;;;1999.90;999.90;;;8.90;96.70;;;;;;5060868;28;20136;-69
2021/03/27 10:45:23;;;;;;;1999.90;999.90;;;9.10;96.60;;;;;;5067137;28;20293;-68
2021/03/27 10:48:05;;;;;;;1999.90;999.90;;;9.00;94.70;;;;;;5064972;28;20052;-69
2021/03/27 10:50:53;;;;;;;1999.90;999.90;;;9.00;95.20;;;;;;5064844;28;20044;-68
2021/03/27 10:54:02;;;;;;;1999.90;999.90;;;8.90;96.10;;;;;;5060079;28;20402;-69
2021/03/27 10:57:15;;;;;;;1999.90;999.90;;;8.90;95.40;;;;;;5063910;28;20076;-68
2021/03/27 11:00:07;;;;;;;1999.90;999.90;;;9.10;96.40;;;;;;5042354;28;20045;-69
2021/03/27 11:02:46;;;;;;;1999.90;999.90;;;9.30;95.70;;;;;;5060415;28;20059;-69
2021/03/27 11:05:19;;;;;;;;;;;9.30;95.40;;;;;;5064795;28;20067;-69
2021/03/27 11:08:06;;;;;;;1999.90;999.90;;;9.20;94.40;;;;;;5084153;28;19921;-68
2021/03/27 11:10:58;;;;;;;1999.90;999.90;;;9.00;95.10;;;;;;5076905;28;20046;-69
2021/03/27 11:14:09;;;;;;;1999.90;999.90;;;8.80;95.30;;;;;;5064739;28;20503;-68
2021/03/27 11:16:45;;;;;;;1999.90;999.90;;;8.50;95.60;;;;;;5059218;28;20506;-69
2021/03/27 11:19:27;;;;;;;1999.90;999.90;;;8.10;96.20;;;;;;5068046;28;20089;-68
2021/03/27 11:22:21;;;;;;;1999.90;999.90;;;7.90;96.40;;;;;;5062311;28;20044;-69
2021/03/27 11:25:08;;;;;;;1999.90;999.90;;;7.90;96.60;;;;;;5064398;28;20045;-68
2021/03/27 11:27:59;;;;;;;1999.90;999.90;;;7.90;96.50;;;;;;5063850;28;20040;-69
2021/03/27 11:30:25;;;;;;;1999.90;999.90;;;7.90;95.80;;;;;;5067680;28;20051;-68
2021/03/27 11:32:58;;;;;;;1999.90;999.90;;;7.90;96.00;;;;;;5059418;28;20053;-68
2021/03/27 11:35:36;;;;;;;1999.90;999.90;;;8.00;96.50;;;;;;5064832;28;20048;-69
2021/03/27 11:38:30;;;;;;;1999.90;999.90;;;8.10;96.80;;;;;;5066499;28;20132;-68
2021/03/27 11:41:05;;;;;;;1999.90;999.90;;;8.20;96.30;;;;;;5063460;28;20048;-69
2021/03/27 11:43:46;;;;;;;1999.90;999.90;;;8.30;96.40;;;;;;5062279;28;20593;-68
2021/03/27 11:46:24;;;;;;;1999.90;999.90;;;8.30;96.40;;;;;;5066476;28;20052;-68
2021/03/27 11:48:53;;;;;;;1999.90;999.90;;;8.30;96.60;;;;;;5061344;28;20044;-68
2021/03/27 11:51:37;;;;;;;1999.90;999.90;;;8.30;96.60;;;;;;5059690;28;20040;-68
2021/03/27 11:54:10;;;;;;;1999.90;999.90;;;8.30;96.10;;;;;;5059207;28;20036;-71
2021/03/27 11:56:49;;;;;;;1999.90;999.90;;;8.20;96.20;;;;;;5056190;28;20076;-71
2021/03/27 11:59:42;;;;;;;1999.90;999.90;;;8.10;95.60;;;;;;5057602;28;20412;-70
2021/03/27 12:02:53;;;;;;;1999.90;999.90;;;8.10;95.90;;;;;;5063621;28;20102;-70
2021/03/27 12:05:19;;;;;;;1999.90;999.90;;;8.20;96.10;;;;;;5060698;28;20080;-70
2021/03/27 12:08:17;;;;;;;1999.90;999.90;;;8.30;96.60;;;;;;5057331;28;20341;-70
2021/03/27 12:11:03;;;;;;;1999.90;999.90;;;8.40;96.40;;;;;;5055383;28;20040;-71
2021/03/27 12:13:46;;;;;;;1999.90;999.90;;;8.60;97.20;;;;;;5050458;28;20072;-70
2021/03/27 12:16:18;;;;;;;1999.90;999.90;;;8.80;97.20;;;;;;5050576;28;20053;-71
2021/03/27 12:18:59;;;;;;;1999.90;999.90;;;8.90;97.50;;;;;;5055151;28;20048;-71
2021/03/27 12:21:30;;;;;;;1999.90;999.90;;;8.90;97.00;;;;;;5051239;28;20048;-71
2021/03/27 12:24:09;;;;;;;1999.90;999.90;;;8.80;96.40;;;;;;5054233;28;20406;-71
2021/03/27 12:26:35;;;;;;;;;;;8.70;96.70;;;;;;5050591;28;20045;-70
2021/03/27 12:29:30;;;;;;;1999.90;999.90;;;8.50;96.50;;;;;;5049783;28;19920;-70
2021/03/27 12:32:18;;;;;;;1999.90;999.90;;;8.40;96.60;;;;;;5047283;28;20045;-71
2021/03/27 12:34:50;;;;;;;1999.90;999.90;;;8.20;96.40;;;;;;5082802;28;20045;-70
2021/03/27 12:37:51;;;;;;;1999.90;999.90;;;8.20;96.50;;;;;;5049950;28;20049;-71
2021/03/27 12:40:55;;;;;;;1999.90;999.90;;;8.20;96.60;;;;;;5051235;28;20488;-71
2021/03/27 12:43:26;;;;;;;1999.90;999.90;;;8.30;97.00;;;;;;5055778;28;20083;-71
2021/03/27 12:46:17;;;;;;;1999.90;999.90;;;8.60;97.60;;;;;;5058369;28;20076;-71
2021/03/27 12:49:13;;;;;;;1999.90;999.90;;;9.00;97.80;;;;;;5066224;28;20048;-71
2021/03/27 12:52:17;;;;;;;1999.90;999.90;;;9.40;97.10;;;;;;5061808;28;20120;-71
2021/03/27 12:55:00;;;;;;;1999.90;999.90;;;9.70;97.70;;;;;;5058142;28;20128;-71
2021/03/27 12:57:39;;;;;;;1999.90;999.90;;;10.00;97.40;;;;;;5065851;28;20527;-71
2021/03/27 13:00:29;;;;;;;1999.90;999.90;;;10.40;96.40;;;;;;5064141;28;20107;-71
2021/03/27 13:03:06;;;;;;;1999.90;999.90;;;10.40;95.60;;;;;;5064555;28;20511;-70
2021/03/27 13:05:58;;;;;;;1999.90;999.90;;;10.20;95.50;;;;;;5062402;28;20044;-71
2021/03/27 13:08:38;;;;;;;1999.90;999.90;;;10.10;94.90;;;;;;5058727;28;20055;-71
2021/03/27 13:11:34;;;;;;;1999.90;999.90;;;9.90;94.80;;;;;;5064678;28;20487;-70
2021/03/27 13:14:38;;;;;;;1999.90;999.90;;;10.00;95.20;;;;;;5062418;28;20381;-71
2021/03/27 13:17:14;;;;;;;1999.90;999.90;;;9.90;95.40;;;;;;5061457;28;20068;-71
2021/03/27 13:19:51;;;;;;;1999.90;999.90;;;9.80;96.40;;;;;;5065365;28;20542;-71
2021/03/27 13:22:23;;;;;;;1999.90;999.90;;;9.70;96.20;;;;;;5062606;28;20140;-70
2021/03/27 13:24:58;;;;;;;1999.90;999.90;;;9.50;94.70;;;;;;5062888;28;20480;-71
2021/03/27 13:27:41;;;;;;;1999.90;999.90;;;9.30;94.70;;;;;;5066625;28;20048;-71
2021/03/27 13:30:18;;;;;;;1999.90;999.90;;;9.10;94.40;;;;;;5065575;28;20399;-70
2021/03/27 13:33:01;;;;;;;1999.90;999.90;;;9.00;95.30;;;;;;5066377;28;20710;-71
2021/03/27 13:35:49;;;;;;;1999.90;999.90;;;9.10;95.20;;;;;;5059808;28;20056;-71
2021/03/27 13:38:26;;;;;;;1999.90;999.90;;;9.30;94.60;;;;;;5061428;28;20143;-70
2021/03/27 13:40:54;;;;;;;1999.90;999.90;;;9.30;94.50;;;;;;5059471;28;20166;-71
2021/03/27 13:44:01;;;;;;;1999.90;999.90;;;9.30;95.20;;;;;;5060602;28;20057;-70
2021/03/27 13:46:33;;;;;;;1999.90;999.90;;;9.50;95.90;;;;;;5056831;28;20071;-71
2021/03/27 13:49:17;;;;;;;1999.90;999.90;;;9.70;95.20;;;;;;5057862;28;20098;-71
2021/03/27 13:51:56;;;;;;;1999.90;999.90;;;9.80;95.50;;;;;;5061653;28;20127;-71
2021/03/27 13:54:22;;;;;;;;;;;9.90;95.90;;;;;;5063808;28;20138;-71
2021/03/27 13:57:12;;;;;;;1999.90;999.90;;;10.00;94.80;;;;;;5057802;28;19928;-71
2021/03/27 14:00:07;;;;;;;1999.90;999.90;;;10.00;95.40;;;;;;5060733;28;20052;-71
2021/03/27 14:02:50;;;;;;;1999.90;999.90;;;9.90;95.20;;;;;;5059757;28;20055;-71
2021/03/27 14:13:11;;;;;;;1999.90;999.90;;;10.00;92.40;;;;;;5055235;28;20145;-70
2021/03/27 14:15:43;;;;;;;1999.90;999.90;;;9.90;94.90;;;;;;5059417;28;20041;-71